sensor_id;sensor_type;location;lat;lon;timestamp;P1;durP1;ratioP1;P2;durP2;ratioP2
5121;SDS011;2563;52.242;7.956;2023-02-28T00:02:16;13.17;;;6.40;;
5121;SDS011;2563;52.242;7.956;2023-02-28T00:04:42;16.70;;;6.30;;
5121;SDS011;2563;52.242;7.956;2023-02-28T00:07:08;16.80;;;7.00;;
5121;SDS011;2563;52.242;7.956;2023-02-28T00:09:33;21.13;;;7.50;;
5121;SDS011;2563;52.242;7.956;2023-02-28T00:11:59;46.13;;;17.40;;
5121;SDS011;2563;52.242;7.956;2023-02-28T00:14:24;42.90;;;15.67;;
5121;SDS011;2563;52.242;7.956;2023-02-28T00:16:49;26.47;;;11.80;;
5121;SDS011;2563;52.242;7.956;2023-02-28T00:19:15;23.67;;;10.70;;
5121;SDS011;2563;52.242;7.956;2023-02-28T00:21:40;16.57;;;7.03;;
5121;SDS011;2563;52.242;7.956;2023-02-28T00:24:06;20.60;;;6.80;;
5121;SDS011;2563;52.242;7.956;2023-02-28T00:26:32;13.93;;;5.60;;
5121;SDS011;2563;52.242;7.956;2023-02-28T00:28:57;14.27;;;6.47;;
5121;SDS011;2563;52.242;7.956;2023-02-28T00:31:23;11.23;;;5.27;;
5121;SDS011;2563;52.242;7.956;2023-02-28T00:33:48;11.77;;;5.50;;
5121;SDS011;2563;52.242;7.956;2023-02-28T00:36:13;17.80;;;5.90;;
5121;SDS011;2563;52.242;7.956;2023-02-28T00:38:39;16.00;;;6.80;;
5121;SDS011;2563;52.242;7.956;2023-02-28T00:41:05;20.07;;;6.80;;
5121;SDS011;2563;52.242;7.956;2023-02-28T00:43:33;18.50;;;7.23;;
5121;SDS011;2563;52.242;7.956;2023-02-28T00:45:59;12.27;;;5.80;;
5121;SDS011;2563;52.242;7.956;2023-02-28T00:48:25;12.67;;;5.47;;
5121;SDS011;2563;52.242;7.956;2023-02-28T00:50:50;13.83;;;5.90;;
5121;SDS011;2563;52.242;7.956;2023-02-28T00:53:16;13.97;;;6.10;;
5121;SDS011;2563;52.242;7.956;2023-02-28T00:55:41;14.67;;;7.27;;
5121;SDS011;2563;52.242;7.956;2023-02-28T00:58:06;18.50;;;7.00;;
5121;SDS011;2563;52.242;7.956;2023-02-28T01:00:32;12.93;;;6.87;;
5121;SDS011;2563;52.242;7.956;2023-02-28T01:02:57;16.63;;;6.90;;
5121;SDS011;2563;52.242;7.956;2023-02-28T01:05:22;15.77;;;7.03;;
5121;SDS011;2563;52.242;7.956;2023-02-28T01:07:48;18.83;;;8.33;;
5121;SDS011;2563;52.242;7.956;2023-02-28T01:10:14;22.20;;;7.73;;
5121;SDS011;2563;52.242;7.956;2023-02-28T01:12:39;23.47;;;8.73;;
5121;SDS011;2563;52.242;7.956;2023-02-28T01:15:04;17.60;;;7.87;;
5121;SDS011;2563;52.242;7.956;2023-02-28T01:17:30;19.33;;;7.07;;
5121;SDS011;2563;52.242;7.956;2023-02-28T01:19:56;14.07;;;6.87;;
5121;SDS011;2563;52.242;7.956;2023-02-28T01:22:21;18.63;;;7.40;;
5121;SDS011;2563;52.242;7.956;2023-02-28T01:24:47;22.07;;;8.13;;
5121;SDS011;2563;52.242;7.956;2023-02-28T01:27:12;16.20;;;7.10;;
5121;SDS011;2563;52.242;7.956;2023-02-28T01:29:38;20.00;;;7.70;;
5121;SDS011;2563;52.242;7.956;2023-02-28T01:32:03;16.60;;;6.60;;
5121;SDS011;2563;52.242;7.956;2023-02-28T01:34:29;18.80;;;6.60;;
5121;SDS011;2563;52.242;7.956;2023-02-28T01:36:54;15.40;;;7.57;;
5121;SDS011;2563;52.242;7.956;2023-02-28T01:39:19;17.50;;;7.13;;
5121;SDS011;2563;52.242;7.956;2023-02-28T01:41:45;19.17;;;7.43;;
5121;SDS011;2563;52.242;7.956;2023-02-28T01:47:13;15.50;;;7.00;;
5121;SDS011;2563;52.242;7.956;2023-02-28T01:49:39;20.00;;;7.23;;
5121;SDS011;2563;52.242;7.956;2023-02-28T01:52:05;13.87;;;6.60;;
5121;SDS011;2563;52.242;7.956;2023-02-28T01:54:31;16.03;;;6.60;;
5121;SDS011;2563;52.242;7.956;2023-02-28T01:59:50;16.30;;;7.30;;
5121;SDS011;2563;52.242;7.956;2023-02-28T02:02:23;18.17;;;8.13;;
5121;SDS011;2563;52.242;7.956;2023-02-28T02:07:18;20.17;;;9.17;;
5121;SDS011;2563;52.242;7.956;2023-02-28T02:09:44;19.40;;;7.97;;
5121;SDS011;2563;52.242;7.956;2023-02-28T02:12:35;20.83;;;8.20;;
5121;SDS011;2563;52.242;7.956;2023-02-28T02:15:22;20.77;;;8.23;;
5121;SDS011;2563;52.242;7.956;2023-02-28T02:18:00;20.80;;;8.00;;
5121;SDS011;2563;52.242;7.956;2023-02-28T02:20:57;22.40;;;9.07;;
5121;SDS011;2563;52.242;7.956;2023-02-28T02:23:41;19.17;;;7.90;;
5121;SDS011;2563;52.242;7.956;2023-02-28T02:42:46;13.13;;;6.00;;
5121;SDS011;2563;52.242;7.956;2023-02-28T02:45:21;17.90;;;7.23;;
5121;SDS011;2563;52.242;7.956;2023-02-28T02:47:51;17.97;;;7.30;;
5121;SDS011;2563;52.242;7.956;2023-02-28T02:50:19;20.33;;;8.10;;
5121;SDS011;2563;52.242;7.956;2023-02-28T02:52:49;14.00;;;6.93;;
5121;SDS011;2563;52.242;7.956;2023-02-28T02:55:20;18.57;;;6.20;;
5121;SDS011;2563;52.242;7.956;2023-02-28T02:57:49;23.53;;;7.40;;
5121;SDS011;2563;52.242;7.956;2023-02-28T03:00:20;21.37;;;8.50;;
5121;SDS011;2563;52.242;7.956;2023-02-28T03:02:50;16.40;;;6.33;;
5121;SDS011;2563;52.242;7.956;2023-02-28T03:05:29;18.13;;;6.83;;
5121;SDS011;2563;52.242;7.956;2023-02-28T03:08:04;15.77;;;6.27;;
5121;SDS011;2563;52.242;7.956;2023-02-28T03:13:09;12.30;;;6.37;;
5121;SDS011;2563;52.242;7.956;2023-02-28T03:18:58;13.73;;;6.53;;
5121;SDS011;2563;52.242;7.956;2023-02-28T03:26:45;12.43;;;6.10;;
5121;SDS011;2563;52.242;7.956;2023-02-28T03:29:28;18.47;;;7.70;;
5121;SDS011;2563;52.242;7.956;2023-02-28T03:32:16;13.43;;;6.67;;
5121;SDS011;2563;52.242;7.956;2023-02-28T03:34:56;15.03;;;6.13;;
5121;SDS011;2563;52.242;7.956;2023-02-28T03:37:29;21.80;;;7.80;;
5121;SDS011;2563;52.242;7.956;2023-02-28T03:40:08;14.50;;;6.20;;
5121;SDS011;2563;52.242;7.956;2023-02-28T03:42:37;16.00;;;7.50;;
5121;SDS011;2563;52.242;7.956;2023-02-28T03:45:16;20.13;;;7.43;;
5121;SDS011;2563;52.242;7.956;2023-02-28T03:50:15;17.10;;;6.83;;
5121;SDS011;2563;52.242;7.956;2023-02-28T03:52:47;13.40;;;6.47;;
5121;SDS011;2563;52.242;7.956;2023-02-28T03:55:16;18.50;;;7.60;;
5121;SDS011;2563;52.242;7.956;2023-02-28T04:00:25;17.70;;;7.43;;
5121;SDS011;2563;52.242;7.956;2023-02-28T04:02:55;13.77;;;6.70;;
5121;SDS011;2563;52.242;7.956;2023-02-28T04:05:21;15.03;;;7.20;;
5121;SDS011;2563;52.242;7.956;2023-02-28T04:07:47;19.37;;;7.30;;
5121;SDS011;2563;52.242;7.956;2023-02-28T04:10:13;14.10;;;7.47;;
5121;SDS011;2563;52.242;7.956;2023-02-28T04:12:40;15.67;;;6.03;;
5121;SDS011;2563;52.242;7.956;2023-02-28T04:15:05;12.63;;;6.00;;
5121;SDS011;2563;52.242;7.956;2023-02-28T04:17:31;12.23;;;6.40;;
5121;SDS011;2563;52.242;7.956;2023-02-28T04:19:57;18.83;;;6.60;;
5121;SDS011;2563;52.242;7.956;2023-02-28T04:22:22;13.33;;;5.80;;
5121;SDS011;2563;52.242;7.956;2023-02-28T04:24:51;12.73;;;5.60;;
5121;SDS011;2563;52.242;7.956;2023-02-28T04:27:18;19.00;;;5.60;;
5121;SDS011;2563;52.242;7.956;2023-02-28T04:29:44;18.00;;;6.10;;
5121;SDS011;2563;52.242;7.956;2023-02-28T04:32:09;17.23;;;6.93;;
5121;SDS011;2563;52.242;7.956;2023-02-28T04:34:35;16.63;;;6.40;;
5121;SDS011;2563;52.242;7.956;2023-02-28T04:37:00;12.33;;;6.00;;
5121;SDS011;2563;52.242;7.956;2023-02-28T04:39:26;14.17;;;5.83;;
5121;SDS011;2563;52.242;7.956;2023-02-28T04:41:51;12.00;;;5.33;;
5121;SDS011;2563;52.242;7.956;2023-02-28T04:44:17;14.80;;;6.40;;
5121;SDS011;2563;52.242;7.956;2023-02-28T04:46:43;16.50;;;5.67;;
5121;SDS011;2563;52.242;7.956;2023-02-28T04:49:11;12.57;;;5.77;;
5121;SDS011;2563;52.242;7.956;2023-02-28T04:51:36;19.33;;;7.03;;
5121;SDS011;2563;52.242;7.956;2023-02-28T04:54:02;11.00;;;5.43;;
5121;SDS011;2563;52.242;7.956;2023-02-28T04:56:28;13.50;;;5.97;;
5121;SDS011;2563;52.242;7.956;2023-02-28T04:58:53;11.43;;;5.20;;
5121;SDS011;2563;52.242;7.956;2023-02-28T05:01:29;14.53;;;5.93;;
5121;SDS011;2563;52.242;7.956;2023-02-28T05:03:58;17.23;;;5.90;;
5121;SDS011;2563;52.242;7.956;2023-02-28T05:06:25;10.60;;;5.47;;
5121;SDS011;2563;52.242;7.956;2023-02-28T05:08:52;13.47;;;6.03;;
5121;SDS011;2563;52.242;7.956;2023-02-28T05:11:19;18.33;;;6.00;;
5121;SDS011;2563;52.242;7.956;2023-02-28T05:14:00;22.93;;;6.30;;
5121;SDS011;2563;52.242;7.956;2023-02-28T05:16:27;12.97;;;6.03;;
5121;SDS011;2563;52.242;7.956;2023-02-28T05:18:52;16.03;;;5.43;;
5121;SDS011;2563;52.242;7.956;2023-02-28T05:21:26;14.80;;;6.67;;
5121;SDS011;2563;52.242;7.956;2023-02-28T05:23:54;25.00;;;7.23;;
5121;SDS011;2563;52.242;7.956;2023-02-28T05:26:21;17.13;;;6.53;;
5121;SDS011;2563;52.242;7.956;2023-02-28T05:28:46;16.80;;;6.70;;
5121;SDS011;2563;52.242;7.956;2023-02-28T05:31:12;10.93;;;5.73;;
5121;SDS011;2563;52.242;7.956;2023-02-28T05:33:37;11.87;;;5.80;;
5121;SDS011;2563;52.242;7.956;2023-02-28T05:36:03;13.57;;;5.57;;
5121;SDS011;2563;52.242;7.956;2023-02-28T05:38:29;14.63;;;6.10;;
5121;SDS011;2563;52.242;7.956;2023-02-28T05:40:54;14.43;;;5.60;;
5121;SDS011;2563;52.242;7.956;2023-02-28T05:43:19;15.97;;;6.40;;
5121;SDS011;2563;52.242;7.956;2023-02-28T05:45:45;16.47;;;6.40;;
5121;SDS011;2563;52.242;7.956;2023-02-28T05:48:11;14.40;;;6.73;;
5121;SDS011;2563;52.242;7.956;2023-02-28T05:50:36;16.90;;;7.00;;
5121;SDS011;2563;52.242;7.956;2023-02-28T05:53:02;17.97;;;6.67;;
5121;SDS011;2563;52.242;7.956;2023-02-28T05:55:28;19.63;;;6.53;;
5121;SDS011;2563;52.242;7.956;2023-02-28T05:57:53;14.37;;;5.63;;
5121;SDS011;2563;52.242;7.956;2023-02-28T06:00:19;15.60;;;6.73;;
5121;SDS011;2563;52.242;7.956;2023-02-28T06:02:45;14.43;;;6.17;;
5121;SDS011;2563;52.242;7.956;2023-02-28T06:05:14;14.00;;;6.10;;
5121;SDS011;2563;52.242;7.956;2023-02-28T06:07:41;15.07;;;5.50;;
5121;SDS011;2563;52.242;7.956;2023-02-28T06:10:07;16.67;;;5.83;;
5121;SDS011;2563;52.242;7.956;2023-02-28T06:12:34;16.37;;;6.17;;
5121;SDS011;2563;52.242;7.956;2023-02-28T06:14:59;17.10;;;6.60;;
5121;SDS011;2563;52.242;7.956;2023-02-28T06:17:25;18.90;;;6.50;;
5121;SDS011;2563;52.242;7.956;2023-02-28T06:19:50;15.90;;;6.13;;
5121;SDS011;2563;52.242;7.956;2023-02-28T06:22:15;19.40;;;7.20;;
5121;SDS011;2563;52.242;7.956;2023-02-28T06:24:41;19.40;;;7.20;;
5121;SDS011;2563;52.242;7.956;2023-02-28T06:27:06;17.17;;;7.23;;
5121;SDS011;2563;52.242;7.956;2023-02-28T06:29:32;14.77;;;6.57;;
5121;SDS011;2563;52.242;7.956;2023-02-28T06:31:59;16.20;;;7.00;;
5121;SDS011;2563;52.242;7.956;2023-02-28T06:34:24;16.00;;;7.00;;
5121;SDS011;2563;52.242;7.956;2023-02-28T06:36:50;18.20;;;8.10;;
5121;SDS011;2563;52.242;7.956;2023-02-28T06:39:16;17.83;;;8.30;;
5121;SDS011;2563;52.242;7.956;2023-02-28T06:41:42;26.50;;;10.10;;
5121;SDS011;2563;52.242;7.956;2023-02-28T06:44:15;19.17;;;7.87;;
5121;SDS011;2563;52.242;7.956;2023-02-28T06:46:43;21.77;;;7.60;;
5121;SDS011;2563;52.242;7.956;2023-02-28T06:49:09;21.30;;;8.77;;
5121;SDS011;2563;52.242;7.956;2023-02-28T06:51:36;26.63;;;8.70;;
5121;SDS011;2563;52.242;7.956;2023-02-28T06:54:04;18.97;;;7.43;;
5121;SDS011;2563;52.242;7.956;2023-02-28T06:56:30;18.43;;;6.40;;
5121;SDS011;2563;52.242;7.956;2023-02-28T06:58:55;14.80;;;6.73;;
5121;SDS011;2563;52.242;7.956;2023-02-28T07:01:21;19.33;;;6.90;;
5121;SDS011;2563;52.242;7.956;2023-02-28T07:03:50;20.83;;;7.77;;
5121;SDS011;2563;52.242;7.956;2023-02-28T07:06:17;16.97;;;8.40;;
5121;SDS011;2563;52.242;7.956;2023-02-28T07:08:47;22.13;;;8.30;;
5121;SDS011;2563;52.242;7.956;2023-02-28T07:11:13;21.53;;;8.70;;
5121;SDS011;2563;52.242;7.956;2023-02-28T07:13:39;18.27;;;7.83;;
5121;SDS011;2563;52.242;7.956;2023-02-28T07:16:05;19.00;;;6.57;;
5121;SDS011;2563;52.242;7.956;2023-02-28T07:18:34;17.77;;;7.70;;
5121;SDS011;2563;52.242;7.956;2023-02-28T07:21:01;10.67;;;5.80;;
5121;SDS011;2563;52.242;7.956;2023-02-28T07:23:28;14.17;;;5.80;;
5121;SDS011;2563;52.242;7.956;2023-02-28T07:25:53;13.30;;;6.00;;
5121;SDS011;2563;52.242;7.956;2023-02-28T07:28:18;9.63;;;4.80;;
5121;SDS011;2563;52.242;7.956;2023-02-28T07:30:44;18.57;;;6.80;;
5121;SDS011;2563;52.242;7.956;2023-02-28T07:33:09;11.77;;;5.67;;
5121;SDS011;2563;52.242;7.956;2023-02-28T07:35:35;14.43;;;5.90;;
5121;SDS011;2563;52.242;7.956;2023-02-28T07:38:00;19.17;;;7.47;;
5121;SDS011;2563;52.242;7.956;2023-02-28T07:40:26;15.50;;;7.43;;
5121;SDS011;2563;52.242;7.956;2023-02-28T07:42:52;16.50;;;7.93;;
5121;SDS011;2563;52.242;7.956;2023-02-28T07:45:17;17.93;;;7.53;;
5121;SDS011;2563;52.242;7.956;2023-02-28T07:47:43;19.10;;;8.07;;
5121;SDS011;2563;52.242;7.956;2023-02-28T07:50:10;16.33;;;7.20;;
5121;SDS011;2563;52.242;7.956;2023-02-28T07:52:38;16.17;;;7.57;;
5121;SDS011;2563;52.242;7.956;2023-02-28T07:55:05;17.10;;;7.50;;
5121;SDS011;2563;52.242;7.956;2023-02-28T07:57:32;15.50;;;7.43;;
5121;SDS011;2563;52.242;7.956;2023-02-28T07:59:57;19.90;;;8.17;;
5121;SDS011;2563;52.242;7.956;2023-02-28T08:02:22;17.87;;;8.07;;
5121;SDS011;2563;52.242;7.956;2023-02-28T08:04:48;13.20;;;7.30;;
5121;SDS011;2563;52.242;7.956;2023-02-28T08:07:14;16.27;;;7.40;;
5121;SDS011;2563;52.242;7.956;2023-02-28T08:09:41;21.30;;;8.30;;
5121;SDS011;2563;52.242;7.956;2023-02-28T08:12:06;17.67;;;7.83;;
5121;SDS011;2563;52.242;7.956;2023-02-28T08:14:33;15.80;;;7.87;;
5121;SDS011;2563;52.242;7.956;2023-02-28T08:16:59;15.10;;;8.20;;
5121;SDS011;2563;52.242;7.956;2023-02-28T08:19:25;18.57;;;8.23;;
5121;SDS011;2563;52.242;7.956;2023-02-28T08:21:50;19.27;;;9.47;;
5121;SDS011;2563;52.242;7.956;2023-02-28T08:24:15;18.60;;;7.70;;
5121;SDS011;2563;52.242;7.956;2023-02-28T08:26:41;20.77;;;8.40;;
5121;SDS011;2563;52.242;7.956;2023-02-28T08:29:06;18.20;;;8.53;;
5121;SDS011;2563;52.242;7.956;2023-02-28T08:31:31;16.80;;;7.73;;
5121;SDS011;2563;52.242;7.956;2023-02-28T08:33:57;26.27;;;8.53;;
5121;SDS011;2563;52.242;7.956;2023-02-28T08:36:24;19.43;;;8.37;;
5121;SDS011;2563;52.242;7.956;2023-02-28T08:38:51;17.10;;;7.53;;
5121;SDS011;2563;52.242;7.956;2023-02-28T08:41:16;15.27;;;7.63;;
5121;SDS011;2563;52.242;7.956;2023-02-28T08:43:42;12.60;;;7.03;;
5121;SDS011;2563;52.242;7.956;2023-02-28T08:46:07;23.67;;;7.40;;
5121;SDS011;2563;52.242;7.956;2023-02-28T08:48:36;35.67;;;7.90;;
5121;SDS011;2563;52.242;7.956;2023-02-28T08:51:06;14.37;;;7.63;;
5121;SDS011;2563;52.242;7.956;2023-02-28T08:53:39;21.60;;;7.83;;
5121;SDS011;2563;52.242;7.956;2023-02-28T08:56:06;19.13;;;6.20;;
5121;SDS011;2563;52.242;7.956;2023-02-28T08:58:36;13.33;;;5.57;;
5121;SDS011;2563;52.242;7.956;2023-02-28T09:01:09;14.13;;;6.03;;
5121;SDS011;2563;52.242;7.956;2023-02-28T09:03:36;16.97;;;6.43;;
5121;SDS011;2563;52.242;7.956;2023-02-28T09:06:02;17.30;;;7.30;;
5121;SDS011;2563;52.242;7.956;2023-02-28T09:08:30;13.73;;;7.03;;
5121;SDS011;2563;52.242;7.956;2023-02-28T09:10:56;11.77;;;5.87;;
5121;SDS011;2563;52.242;7.956;2023-02-28T09:13:23;19.00;;;7.63;;
5121;SDS011;2563;52.242;7.956;2023-02-28T09:15:51;12.40;;;5.90;;
5121;SDS011;2563;52.242;7.956;2023-02-28T09:18:18;13.83;;;5.60;;
5121;SDS011;2563;52.242;7.956;2023-02-28T09:20:43;12.80;;;6.53;;
5121;SDS011;2563;52.242;7.956;2023-02-28T09:23:10;10.80;;;5.40;;
5121;SDS011;2563;52.242;7.956;2023-02-28T09:25:37;9.77;;;5.00;;
5121;SDS011;2563;52.242;7.956;2023-02-28T09:28:10;11.00;;;5.10;;
5121;SDS011;2563;52.242;7.956;2023-02-28T09:30:36;11.30;;;5.40;;
5121;SDS011;2563;52.242;7.956;2023-02-28T09:33:01;10.53;;;5.67;;
5121;SDS011;2563;52.242;7.956;2023-02-28T09:35:27;11.13;;;5.60;;
5121;SDS011;2563;52.242;7.956;2023-02-28T09:37:52;10.20;;;5.07;;
5121;SDS011;2563;52.242;7.956;2023-02-28T09:40:22;8.77;;;4.33;;
5121;SDS011;2563;52.242;7.956;2023-02-28T09:42:49;8.37;;;4.33;;
5121;SDS011;2563;52.242;7.956;2023-02-28T09:45:22;11.00;;;4.57;;
5121;SDS011;2563;52.242;7.956;2023-02-28T09:47:54;11.00;;;4.47;;
5121;SDS011;2563;52.242;7.956;2023-02-28T09:50:35;14.70;;;3.73;;
5121;SDS011;2563;52.242;7.956;2023-02-28T09:53:14;10.20;;;3.53;;
5121;SDS011;2563;52.242;7.956;2023-02-28T09:55:48;11.57;;;3.90;;
5121;SDS011;2563;52.242;7.956;2023-02-28T09:58:31;8.10;;;4.07;;
5121;SDS011;2563;52.242;7.956;2023-02-28T10:01:25;7.00;;;3.33;;
5121;SDS011;2563;52.242;7.956;2023-02-28T10:06:57;3.27;;;1.40;;
5121;SDS011;2563;52.242;7.956;2023-02-28T10:09:28;6.00;;;1.37;;
5121;SDS011;2563;52.242;7.956;2023-02-28T10:12:00;4.40;;;1.17;;
5121;SDS011;2563;52.242;7.956;2023-02-28T10:14:29;3.00;;;1.10;;
5121;SDS011;2563;52.242;7.956;2023-02-28T10:19:39;3.43;;;1.47;;
5121;SDS011;2563;52.242;7.956;2023-02-28T10:22:14;5.93;;;1.97;;
5121;SDS011;2563;52.242;7.956;2023-02-28T10:24:43;2.30;;;1.43;;
5121;SDS011;2563;52.242;7.956;2023-02-28T10:27:23;2.90;;;1.43;;
5121;SDS011;2563;52.242;7.956;2023-02-28T10:29:52;3.90;;;1.43;;
5121;SDS011;2563;52.242;7.956;2023-02-28T10:32:20;2.53;;;1.20;;
5121;SDS011;2563;52.242;7.956;2023-02-28T10:34:52;4.53;;;1.50;;
5121;SDS011;2563;52.242;7.956;2023-02-28T10:37:23;4.90;;;1.47;;
5121;SDS011;2563;52.242;7.956;2023-02-28T10:39:48;2.30;;;1.27;;
5121;SDS011;2563;52.242;7.956;2023-02-28T10:42:29;3.10;;;1.10;;
5121;SDS011;2563;52.242;7.956;2023-02-28T10:45:05;3.27;;;1.27;;
5121;SDS011;2563;52.242;7.956;2023-02-28T10:47:48;2.00;;;1.00;;
5121;SDS011;2563;52.242;7.956;2023-02-28T10:52:54;2.97;;;1.70;;
5121;SDS011;2563;52.242;7.956;2023-02-28T10:55:30;3.03;;;1.60;;
5121;SDS011;2563;52.242;7.956;2023-02-28T10:57:56;2.93;;;1.50;;
5121;SDS011;2563;52.242;7.956;2023-02-28T11:00:23;1.80;;;1.20;;
5121;SDS011;2563;52.242;7.956;2023-02-28T11:02:50;2.57;;;1.23;;
5121;SDS011;2563;52.242;7.956;2023-02-28T11:07:51;2.57;;;1.50;;
5121;SDS011;2563;52.242;7.956;2023-02-28T11:10:19;3.07;;;1.40;;
5121;SDS011;2563;52.242;7.956;2023-02-28T11:12:46;3.00;;;1.37;;
5121;SDS011;2563;52.242;7.956;2023-02-28T11:15:25;3.80;;;1.10;;
5121;SDS011;2563;52.242;7.956;2023-02-28T11:17:57;5.13;;;1.50;;
5121;SDS011;2563;52.242;7.956;2023-02-28T11:20:23;9.60;;;1.67;;
5121;SDS011;2563;52.242;7.956;2023-02-28T11:22:51;2.90;;;1.70;;
5121;SDS011;2563;52.242;7.956;2023-02-28T11:25:23;7.03;;;1.30;;
5121;SDS011;2563;52.242;7.956;2023-02-28T11:27:52;2.70;;;1.40;;
5121;SDS011;2563;52.242;7.956;2023-02-28T11:30:24;3.73;;;1.17;;
5121;SDS011;2563;52.242;7.956;2023-02-28T11:32:54;2.13;;;1.30;;
5121;SDS011;2563;52.242;7.956;2023-02-28T11:35:28;2.10;;;1.10;;
5121;SDS011;2563;52.242;7.956;2023-02-28T11:38:00;2.17;;;1.30;;
5121;SDS011;2563;52.242;7.956;2023-02-28T11:40:30;2.53;;;1.30;;
5121;SDS011;2563;52.242;7.956;2023-02-28T11:43:06;3.57;;;1.40;;
5121;SDS011;2563;52.242;7.956;2023-02-28T11:46:01;2.73;;;1.50;;
5121;SDS011;2563;52.242;7.956;2023-02-28T11:48:46;3.90;;;1.37;;
5121;SDS011;2563;52.242;7.956;2023-02-28T11:51:20;2.20;;;1.33;;
5121;SDS011;2563;52.242;7.956;2023-02-28T11:56:33;3.60;;;1.60;;
5121;SDS011;2563;52.242;7.956;2023-02-28T12:02:25;2.40;;;1.57;;
5121;SDS011;2563;52.242;7.956;2023-02-28T12:07:51;3.80;;;1.70;;
5121;SDS011;2563;52.242;7.956;2023-02-28T12:10:24;10.83;;;2.67;;
5121;SDS011;2563;52.242;7.956;2023-02-28T12:13:08;2.77;;;1.60;;
5121;SDS011;2563;52.242;7.956;2023-02-28T12:21:31;3.37;;;2.00;;
5121;SDS011;2563;52.242;7.956;2023-02-28T12:26:58;3.83;;;2.27;;
5121;SDS011;2563;52.242;7.956;2023-02-28T12:29:28;4.50;;;2.20;;
5121;SDS011;2563;52.242;7.956;2023-02-28T12:31:58;5.10;;;2.30;;
5121;SDS011;2563;52.242;7.956;2023-02-28T12:34:34;5.50;;;2.00;;
5121;SDS011;2563;52.242;7.956;2023-02-28T12:37:07;3.33;;;1.93;;
5121;SDS011;2563;52.242;7.956;2023-02-28T12:39:39;2.83;;;1.87;;
5121;SDS011;2563;52.242;7.956;2023-02-28T12:42:13;2.67;;;1.97;;
5121;SDS011;2563;52.242;7.956;2023-02-28T12:44:52;3.47;;;1.70;;
5121;SDS011;2563;52.242;7.956;2023-02-28T12:47:23;2.30;;;1.70;;
5121;SDS011;2563;52.242;7.956;2023-02-28T12:49:50;4.20;;;1.93;;
5121;SDS011;2563;52.242;7.956;2023-02-28T12:52:24;5.47;;;1.90;;
5121;SDS011;2563;52.242;7.956;2023-02-28T12:55:02;4.33;;;1.60;;
5121;SDS011;2563;52.242;7.956;2023-02-28T13:09:10;4.83;;;2.10;;
5121;SDS011;2563;52.242;7.956;2023-02-28T13:11:40;4.03;;;2.10;;
5121;SDS011;2563;52.242;7.956;2023-02-28T13:14:52;5.13;;;2.80;;
5121;SDS011;2563;52.242;7.956;2023-02-28T13:19:32;4.27;;;2.70;;
5121;SDS011;2563;52.242;7.956;2023-02-28T13:22:00;5.40;;;2.57;;
5121;SDS011;2563;52.242;7.956;2023-02-28T13:24:43;3.50;;;2.40;;
5121;SDS011;2563;52.242;7.956;2023-02-28T13:29:35;5.80;;;3.00;;
5121;SDS011;2563;52.242;7.956;2023-02-28T13:34:33;4.93;;;2.70;;
5121;SDS011;2563;52.242;7.956;2023-02-28T13:45:28;4.10;;;2.37;;
5121;SDS011;2563;52.242;7.956;2023-02-28T13:50:40;6.10;;;2.53;;
5121;SDS011;2563;52.242;7.956;2023-02-28T13:55:43;4.13;;;2.50;;
5121;SDS011;2563;52.242;7.956;2023-02-28T13:58:33;6.70;;;2.37;;
5121;SDS011;2563;52.242;7.956;2023-02-28T14:06:53;3.40;;;2.40;;
5121;SDS011;2563;52.242;7.956;2023-02-28T14:09:39;4.70;;;2.70;;
5121;SDS011;2563;52.242;7.956;2023-02-28T14:17:58;8.00;;;2.47;;
5121;SDS011;2563;52.242;7.956;2023-02-28T14:20:27;4.83;;;2.10;;
5121;SDS011;2563;52.242;7.956;2023-02-28T14:23:00;4.67;;;2.20;;
5121;SDS011;2563;52.242;7.956;2023-02-28T14:25:53;5.07;;;2.20;;
5121;SDS011;2563;52.242;7.956;2023-02-28T14:31:11;4.40;;;2.13;;
5121;SDS011;2563;52.242;7.956;2023-02-28T14:36:36;2.40;;;2.00;;
5121;SDS011;2563;52.242;7.956;2023-02-28T14:39:05;3.70;;;2.03;;
5121;SDS011;2563;52.242;7.956;2023-02-28T14:41:37;3.67;;;2.30;;
5121;SDS011;2563;52.242;7.956;2023-02-28T14:44:18;4.30;;;2.60;;
5121;SDS011;2563;52.242;7.956;2023-02-28T14:46:46;5.73;;;2.80;;
5121;SDS011;2563;52.242;7.956;2023-02-28T14:49:27;9.60;;;2.20;;
5121;SDS011;2563;52.242;7.956;2023-02-28T14:54:38;4.03;;;2.23;;
5121;SDS011;2563;52.242;7.956;2023-02-28T14:57:05;2.80;;;2.03;;
5121;SDS011;2563;52.242;7.956;2023-02-28T14:59:32;8.20;;;2.70;;
5121;SDS011;2563;52.242;7.956;2023-02-28T15:05:01;3.53;;;2.20;;
5121;SDS011;2563;52.242;7.956;2023-02-28T15:07:47;12.20;;;3.03;;
5121;SDS011;2563;52.242;7.956;2023-02-28T15:12:58;3.27;;;2.03;;
5121;SDS011;2563;52.242;7.956;2023-02-28T15:15:40;5.63;;;2.30;;
5121;SDS011;2563;52.242;7.956;2023-02-28T15:18:27;5.10;;;2.67;;
5121;SDS011;2563;52.242;7.956;2023-02-28T15:21:07;7.43;;;2.90;;
5121;SDS011;2563;52.242;7.956;2023-02-28T15:23:37;5.40;;;2.97;;
5121;SDS011;2563;52.242;7.956;2023-02-28T15:26:05;6.70;;;2.40;;
5121;SDS011;2563;52.242;7.956;2023-02-28T15:28:31;4.63;;;2.70;;
5121;SDS011;2563;52.242;7.956;2023-02-28T15:30:59;6.47;;;3.33;;
5121;SDS011;2563;52.242;7.956;2023-02-28T15:33:27;7.17;;;2.90;;
5121;SDS011;2563;52.242;7.956;2023-02-28T15:38:42;5.77;;;2.90;;
5121;SDS011;2563;52.242;7.956;2023-02-28T15:41:21;4.77;;;2.50;;
5121;SDS011;2563;52.242;7.956;2023-02-28T15:44:06;4.53;;;2.60;;
5121;SDS011;2563;52.242;7.956;2023-02-28T15:46:45;3.60;;;2.90;;
5121;SDS011;2563;52.242;7.956;2023-02-28T15:49:22;9.90;;;3.30;;
5121;SDS011;2563;52.242;7.956;2023-02-28T15:51:49;4.10;;;2.77;;
5121;SDS011;2563;52.242;7.956;2023-02-28T15:54:21;6.53;;;3.80;;
5121;SDS011;2563;52.242;7.956;2023-02-28T15:56:52;5.20;;;3.20;;
5121;SDS011;2563;52.242;7.956;2023-02-28T15:59:21;7.47;;;4.40;;
5121;SDS011;2563;52.242;7.956;2023-02-28T16:04:34;9.17;;;4.40;;
5121;SDS011;2563;52.242;7.956;2023-02-28T16:09:26;6.30;;;3.57;;
5121;SDS011;2563;52.242;7.956;2023-02-28T16:11:53;6.70;;;3.63;;
5121;SDS011;2563;52.242;7.956;2023-02-28T16:14:24;5.13;;;3.30;;
5121;SDS011;2563;52.242;7.956;2023-02-28T16:17:04;4.80;;;2.87;;
5121;SDS011;2563;52.242;7.956;2023-02-28T16:19:34;6.43;;;3.50;;
5121;SDS011;2563;52.242;7.956;2023-02-28T16:22:00;8.43;;;4.23;;
5121;SDS011;2563;52.242;7.956;2023-02-28T16:24:26;5.73;;;3.60;;
5121;SDS011;2563;52.242;7.956;2023-02-28T16:26:52;7.20;;;3.90;;
5121;SDS011;2563;52.242;7.956;2023-02-28T16:29:24;10.70;;;4.40;;
5121;SDS011;2563;52.242;7.956;2023-02-28T16:31:54;10.53;;;4.40;;
5121;SDS011;2563;52.242;7.956;2023-02-28T16:34:19;6.70;;;3.53;;
5121;SDS011;2563;52.242;7.956;2023-02-28T16:36:46;7.33;;;4.13;;
5121;SDS011;2563;52.242;7.956;2023-02-28T16:39:13;7.23;;;4.07;;
5121;SDS011;2563;52.242;7.956;2023-02-28T16:41:38;8.50;;;4.40;;
5121;SDS011;2563;52.242;7.956;2023-02-28T16:44:09;10.33;;;4.70;;
5121;SDS011;2563;52.242;7.956;2023-02-28T16:46:44;14.03;;;4.60;;
5121;SDS011;2563;52.242;7.956;2023-02-28T16:49:10;4.40;;;2.80;;
5121;SDS011;2563;52.242;7.956;2023-02-28T16:51:37;8.47;;;3.90;;
5121;SDS011;2563;52.242;7.956;2023-02-28T16:54:03;9.17;;;5.30;;
5121;SDS011;2563;52.242;7.956;2023-02-28T16:56:28;7.90;;;4.73;;
5121;SDS011;2563;52.242;7.956;2023-02-28T16:58:54;5.90;;;3.03;;
5121;SDS011;2563;52.242;7.956;2023-02-28T17:01:24;12.50;;;4.50;;
5121;SDS011;2563;52.242;7.956;2023-02-28T17:03:50;10.80;;;4.40;;
5121;SDS011;2563;52.242;7.956;2023-02-28T17:06:28;10.10;;;5.17;;
5121;SDS011;2563;52.242;7.956;2023-02-28T17:08:55;16.83;;;7.00;;
5121;SDS011;2563;52.242;7.956;2023-02-28T17:11:21;10.07;;;6.40;;
5121;SDS011;2563;52.242;7.956;2023-02-28T17:13:47;15.53;;;8.57;;
5121;SDS011;2563;52.242;7.956;2023-02-28T17:16:29;12.10;;;6.13;;
5121;SDS011;2563;52.242;7.956;2023-02-28T17:18:58;18.83;;;9.07;;
5121;SDS011;2563;52.242;7.956;2023-02-28T17:21:29;15.87;;;7.13;;
5121;SDS011;2563;52.242;7.956;2023-02-28T17:23:55;19.13;;;9.37;;
5121;SDS011;2563;52.242;7.956;2023-02-28T17:26:21;18.20;;;11.07;;
5121;SDS011;2563;52.242;7.956;2023-02-28T17:28:49;13.90;;;7.40;;
5121;SDS011;2563;52.242;7.956;2023-02-28T17:31:16;14.43;;;8.03;;
5121;SDS011;2563;52.242;7.956;2023-02-28T17:33:42;16.90;;;8.50;;
5121;SDS011;2563;52.242;7.956;2023-02-28T17:36:14;21.00;;;10.03;;